createdAt,value
2017-09-04T00:00:29.448Z,7.35
2017-09-04T00:02:58.724Z,7.62
2017-09-04T00:05:28.324Z,7.62
2017-09-04T00:07:57.623Z,7.70
2017-09-04T00:10:28.197Z,8.15
2017-09-04T00:12:59.200Z,8.55
2017-09-04T00:15:28.513Z,9.02
2017-09-04T00:17:57.816Z,9.23
2017-09-04T00:20:27.252Z,8.73
2017-09-04T00:22:56.496Z,10.25
2017-09-04T00:25:25.751Z,9.27
2017-09-04T00:27:55.052Z,10.23
2017-09-04T00:30:24.352Z,9.60
2017-09-04T00:32:53.591Z,8.68
2017-09-04T00:35:22.871Z,8.55
2017-09-04T00:37:52.110Z,9.20
2017-09-04T00:40:21.360Z,9.80
2017-09-04T00:42:50.840Z,9.55
2017-09-04T00:45:20.088Z,9.65
2017-09-04T00:47:49.333Z,9.38
2017-09-04T00:50:18.610Z,8.90
2017-09-04T00:52:47.863Z,9.90
2017-09-04T00:55:17.103Z,10.55
2017-09-04T00:57:46.407Z,9.68
2017-09-04T01:03:33.329Z,10.27
2017-09-04T01:06:02.606Z,10.75
2017-09-04T01:08:31.814Z,9.20
2017-09-04T01:11:01.108Z,10.05
2017-09-04T01:13:30.363Z,8.63
2017-09-04T01:15:59.609Z,9.77
2017-09-04T01:18:28.881Z,9.70
2017-09-04T01:20:58.129Z,10.70
2017-09-04T01:23:27.395Z,10.45
2017-09-04T01:25:56.682Z,9.77
2017-09-04T01:28:25.927Z,9.98
2017-09-04T01:30:55.176Z,10.93
2017-09-04T01:33:24.456Z,11.38
2017-09-04T01:35:53.700Z,10.57
2017-09-04T01:38:23.134Z,10.35
2017-09-04T01:40:52.389Z,10.10
2017-09-04T01:43:21.643Z,10.13
2017-09-04T01:45:51.014Z,11.20
2017-09-04T01:48:20.259Z,10.90
2017-09-04T01:50:49.512Z,10.73
2017-09-04T01:53:18.866Z,10.23
2017-09-04T01:55:48.086Z,9.95
2017-09-04T01:58:17.336Z,10.20
2017-09-04T02:00:46.765Z,9.77
2017-09-04T02:03:16.007Z,9.40
2017-09-04T02:05:45.243Z,9.82
2017-09-04T02:08:14.699Z,9.10
2017-09-04T02:10:43.944Z,9.23
2017-09-04T02:13:13.195Z,8.93
2017-09-04T02:15:42.477Z,9.13
2017-09-04T02:18:11.722Z,9.50
2017-09-04T02:20:40.962Z,9.73
2017-09-04T02:23:10.275Z,8.70
2017-09-04T02:25:39.510Z,9.80
2017-09-04T02:28:08.775Z,10.40
2017-09-04T02:30:38.050Z,10.27
2017-09-04T02:33:07.298Z,10.60
2017-09-04T02:35:36.555Z,11.20
2017-09-04T02:38:05.998Z,10.18
2017-09-04T02:40:35.266Z,11.60
2017-09-04T02:43:04.515Z,10.20
2017-09-04T02:45:33.806Z,12.45
2017-09-04T02:48:03.074Z,12.27
2017-09-04T02:50:32.316Z,11.60
2017-09-04T02:53:01.616Z,10.88
2017-09-04T02:55:30.854Z,9.70
2017-09-04T02:58:00.102Z,10.35
2017-09-04T03:00:29.383Z,10.90
2017-09-04T03:02:58.628Z,10.65
2017-09-04T03:05:27.916Z,11.50
2017-09-04T03:07:57.233Z,12.18
2017-09-04T03:10:26.494Z,12.45
2017-09-04T03:12:55.779Z,11.40
2017-09-04T03:15:25.150Z,11.25
2017-09-04T03:17:54.391Z,11.20
2017-09-04T03:20:23.653Z,10.65
2017-09-04T03:22:52.940Z,13.52
2017-09-04T03:25:22.203Z,12.20
2017-09-04T03:27:51.462Z,11.75
2017-09-04T03:30:20.766Z,11.80
2017-09-04T03:32:50.015Z,12.35
2017-09-04T03:35:19.284Z,12.32
2017-09-04T03:37:48.563Z,13.10
2017-09-04T03:40:17.827Z,14.45
2017-09-04T03:42:47.078Z,13.00
2017-09-04T03:45:16.348Z,12.55
2017-09-04T03:47:45.607Z,12.52
2017-09-04T03:50:15.030Z,13.95
2017-09-04T03:52:44.321Z,13.30
2017-09-04T03:55:13.588Z,13.65
2017-09-04T03:57:42.861Z,13.32
2017-09-04T04:00:12.179Z,13.18
2017-09-04T04:02:41.435Z,12.68
2017-09-04T04:05:10.691Z,13.70
2017-09-04T04:07:39.950Z,13.85
2017-09-04T04:10:09.205Z,14.20
2017-09-04T04:12:38.479Z,13.98
2017-09-04T04:15:07.738Z,13.13
2017-09-04T04:17:36.991Z,15.15
2017-09-04T04:20:06.253Z,14.77
2017-09-04T04:22:35.500Z,14.93
2017-09-04T04:25:04.762Z,14.95
2017-09-04T04:27:34.007Z,14.32
2017-09-04T04:30:04.891Z,14.30
2017-09-04T04:32:34.347Z,13.13
2017-09-04T04:35:03.596Z,13.20
2017-09-04T04:37:32.868Z,13.23
2017-09-04T04:40:02.135Z,14.00
2017-09-04T04:42:31.424Z,15.25
2017-09-04T04:45:00.866Z,15.10
2017-09-04T04:47:30.115Z,14.63
2017-09-04T04:49:59.368Z,13.68
2017-09-04T04:52:28.654Z,13.68
2017-09-04T04:54:57.899Z,12.70
2017-09-04T04:57:27.171Z,14.18
2017-09-04T04:59:56.427Z,14.85
2017-09-04T05:02:25.679Z,14.63
2017-09-04T05:04:55.098Z,14.32
2017-09-04T05:07:24.355Z,14.57
2017-09-04T05:09:54.379Z,14.95
2017-09-04T05:12:23.816Z,13.18
2017-09-04T05:14:53.063Z,16.55
2017-09-04T05:17:22.312Z,15.50
2017-09-04T05:19:51.596Z,14.13
2017-09-04T05:22:20.909Z,15.93
2017-09-04T05:24:51.083Z,14.87
2017-09-04T05:27:20.334Z,15.98
2017-09-04T05:29:49.583Z,14.68
2017-09-04T05:32:19.000Z,16.02
2017-09-04T05:34:48.250Z,16.20
2017-09-04T05:37:17.571Z,15.60
2017-09-04T05:39:46.843Z,15.65
2017-09-04T05:42:16.087Z,16.33
2017-09-04T05:44:45.338Z,15.50
2017-09-04T05:47:14.619Z,16.00
2017-09-04T05:49:44.219Z,15.15
2017-09-04T05:52:13.518Z,16.10
2017-09-04T05:54:42.767Z,16.30
2017-09-04T05:57:12.028Z,15.30
2017-09-04T05:59:41.327Z,14.50
2017-09-04T06:02:10.615Z,13.68
2017-09-04T06:04:39.882Z,15.35
2017-09-04T06:07:09.147Z,13.32
2017-09-04T06:09:38.425Z,13.55
2017-09-04T06:12:07.883Z,12.30
2017-09-04T06:14:37.144Z,11.50
2017-09-04T06:17:06.400Z,11.35
2017-09-04T06:19:35.698Z,10.73
2017-09-04T06:22:04.933Z,12.25
2017-09-04T06:24:34.188Z,12.07
2017-09-04T06:27:03.527Z,11.27
2017-09-04T06:29:32.840Z,10.43
2017-09-04T06:32:02.100Z,11.90
2017-09-04T06:34:31.413Z,11.25
2017-09-04T06:37:00.673Z,10.27
2017-09-04T06:39:29.984Z,11.07
2017-09-04T06:41:59.238Z,9.65
2017-09-04T06:44:28.510Z,11.00
2017-09-04T06:46:58.072Z,11.68
2017-09-04T06:49:27.340Z,11.10
2017-09-04T06:51:56.649Z,11.35
2017-09-04T06:54:26.141Z,12.23
2017-09-04T06:56:55.401Z,11.30
2017-09-04T06:59:24.651Z,12.43
2017-09-04T07:01:53.967Z,13.40
2017-09-04T07:04:23.212Z,13.95
2017-09-04T07:06:52.488Z,13.88
2017-09-04T07:09:21.883Z,14.13
2017-09-04T07:11:51.142Z,13.20
2017-09-04T07:14:20.443Z,14.35
2017-09-04T07:16:49.728Z,13.20
2017-09-04T07:19:18.980Z,13.50
2017-09-04T07:21:48.283Z,13.98
2017-09-04T07:24:17.547Z,14.23
2017-09-04T07:26:46.802Z,12.88
2017-09-04T07:29:16.124Z,12.25
2017-09-04T07:31:45.368Z,13.60
2017-09-04T07:34:14.611Z,11.95
2017-09-04T07:36:44.464Z,13.13
2017-09-04T07:39:14.132Z,12.30
2017-09-04T07:41:46.732Z,11.73
2017-09-04T07:44:17.171Z,12.20
2017-09-04T07:46:49.124Z,12.05
2017-09-04T07:49:18.961Z,12.73
2017-09-04T07:51:48.869Z,10.98
2017-09-04T07:54:18.433Z,11.63
2017-09-04T07:56:47.740Z,10.88
2017-09-04T07:59:16.991Z,12.32
2017-09-04T08:01:46.242Z,11.15
2017-09-04T08:04:15.530Z,10.40
2017-09-04T08:06:44.895Z,10.93
2017-09-04T08:09:14.140Z,9.40
2017-09-04T08:11:43.410Z,10.55
2017-09-04T08:14:12.848Z,11.82
2017-09-04T08:16:42.091Z,9.02
2017-09-04T08:19:24.300Z,8.40
2017-09-04T08:21:53.579Z,9.00
2017-09-04T08:24:22.836Z,9.23
2017-09-04T08:26:52.090Z,8.73
2017-09-04T08:29:21.529Z,8.70
2017-09-04T08:31:50.777Z,8.95
2017-09-04T08:34:20.018Z,8.43
2017-09-04T08:36:49.321Z,8.10
2017-09-04T08:39:18.532Z,9.35
2017-09-04T08:41:47.975Z,7.55
2017-09-04T08:44:17.212Z,7.75
2017-09-04T08:46:46.447Z,8.50
2017-09-04T08:49:15.891Z,8.20
2017-09-04T08:51:45.140Z,8.32
2017-09-04T08:54:14.383Z,8.40
2017-09-04T08:56:43.840Z,8.52
2017-09-04T08:59:13.098Z,8.00
2017-09-04T09:01:42.456Z,7.70
2017-09-04T09:04:11.695Z,7.00
2017-09-04T09:06:40.954Z,7.10
2017-09-04T09:09:10.246Z,7.80
2017-09-04T09:11:39.500Z,7.03
2017-09-04T09:14:08.751Z,8.50
2017-09-04T09:16:38.022Z,6.97
2017-09-04T09:19:07.260Z,5.87
2017-09-04T09:21:36.504Z,6.80
2017-09-04T09:24:06.000Z,5.90
2017-09-04T09:26:35.239Z,6.10
2017-09-04T09:29:04.492Z,7.05
2017-09-04T09:31:33.748Z,5.90
2017-09-04T09:34:02.997Z,5.90
2017-09-04T09:36:32.260Z,5.85
2017-09-04T09:39:01.530Z,6.05
2017-09-04T09:41:30.807Z,6.70
2017-09-04T09:44:00.087Z,5.90
2017-09-04T09:46:29.336Z,5.87
2017-09-04T09:48:58.595Z,5.85
2017-09-04T09:51:27.867Z,5.65
2017-09-04T09:53:57.115Z,5.90
2017-09-04T09:56:26.375Z,5.40
2017-09-04T09:58:55.653Z,5.82
2017-09-04T10:01:24.887Z,5.65
2017-09-04T10:03:54.161Z,5.82
2017-09-04T10:06:23.428Z,5.87
2017-09-04T10:08:52.716Z,5.20
2017-09-04T10:11:21.967Z,5.43
2017-09-04T10:13:51.236Z,5.18
2017-09-04T10:16:20.531Z,5.18
2017-09-04T10:18:49.784Z,4.90
2017-09-04T10:21:19.013Z,4.47
2017-09-04T10:23:48.316Z,5.12
2017-09-04T10:26:17.556Z,4.57
2017-09-04T10:28:46.800Z,4.72
2017-09-04T10:31:16.863Z,4.53
2017-09-04T10:33:46.117Z,4.25
2017-09-04T10:36:15.378Z,4.47
2017-09-04T10:38:44.685Z,4.12
2017-09-04T10:41:13.923Z,4.65
2017-09-04T10:43:43.231Z,4.60
2017-09-04T10:46:12.512Z,4.97
2017-09-04T10:48:42.576Z,4.28
2017-09-04T10:51:11.844Z,5.18
2017-09-04T10:53:41.087Z,5.07
2017-09-04T10:56:10.399Z,5.32
2017-09-04T10:58:40.591Z,5.00
2017-09-04T11:01:09.852Z,4.97
2017-09-04T11:03:39.119Z,4.80
2017-09-04T11:06:08.354Z,4.55
2017-09-04T11:08:37.593Z,4.55
2017-09-04T11:11:07.237Z,4.22
2017-09-04T11:13:36.496Z,4.10
2017-09-04T11:16:05.737Z,4.12
2017-09-04T11:18:35.040Z,4.03
2017-09-04T11:21:04.295Z,4.50
2017-09-04T11:23:34.584Z,4.62
2017-09-04T11:26:03.823Z,4.70
2017-09-04T11:28:33.079Z,4.20
2017-09-04T11:31:02.490Z,4.85
2017-09-04T11:33:31.739Z,4.05
2017-09-04T11:36:00.972Z,4.12
2017-09-04T11:38:30.269Z,10.00
2017-09-04T11:40:59.511Z,3.87
2017-09-04T11:43:28.746Z,4.60
2017-09-04T11:45:58.042Z,4.05
2017-09-04T11:48:27.278Z,4.07
2017-09-04T11:50:56.528Z,4.40
2017-09-04T11:53:25.777Z,4.07
2017-09-04T11:55:55.070Z,4.70
2017-09-04T11:58:24.322Z,3.60
2017-09-04T12:00:53.561Z,3.87
2017-09-04T12:03:22.851Z,3.58
2017-09-04T12:05:52.097Z,4.57
2017-09-04T12:08:21.335Z,3.87
2017-09-04T12:10:50.624Z,3.55
2017-09-04T12:13:19.866Z,3.55
2017-09-04T12:15:49.103Z,3.40
2017-09-04T12:18:18.360Z,3.50
2017-09-04T12:20:47.611Z,3.67
2017-09-04T12:23:16.867Z,3.67
2017-09-04T12:25:46.136Z,3.75
2017-09-04T12:28:15.380Z,3.37
2017-09-04T12:30:44.639Z,3.80
2017-09-04T12:33:14.064Z,3.45
2017-09-04T12:35:43.298Z,3.83
2017-09-04T12:38:12.541Z,4.00
2017-09-04T12:40:41.986Z,3.70
2017-09-04T12:43:11.272Z,3.50
2017-09-04T12:45:40.729Z,4.00
2017-09-04T12:48:10.016Z,3.40
2017-09-04T12:50:39.260Z,3.65
2017-09-04T12:53:08.525Z,4.40
2017-09-04T12:55:37.787Z,3.87
2017-09-04T12:58:07.024Z,4.32
2017-09-04T13:00:36.290Z,4.80
2017-09-04T13:03:05.592Z,4.32
2017-09-04T13:05:34.840Z,4.70
2017-09-04T13:08:04.132Z,4.60
2017-09-04T13:10:38.815Z,4.95
2017-09-04T13:13:13.754Z,4.80
2017-09-04T13:15:48.559Z,5.00
2017-09-04T13:18:23.119Z,5.05
2017-09-04T13:20:57.812Z,5.30
2017-09-04T13:23:32.567Z,4.82
2017-09-04T13:29:11.059Z,5.22
2017-09-04T13:31:45.900Z,5.50
2017-09-04T13:34:20.807Z,6.28
2017-09-04T13:36:55.444Z,5.87
2017-09-04T13:42:36.177Z,5.50
2017-09-04T13:45:11.019Z,5.87
2017-09-04T13:50:50.732Z,5.10
2017-09-04T13:53:25.441Z,4.50
2017-09-04T13:55:57.041Z,5.35
2017-09-04T13:58:29.798Z,5.20
2017-09-04T14:01:04.616Z,5.87
2017-09-04T14:03:39.895Z,4.53
2017-09-04T14:06:14.931Z,4.47
2017-09-04T14:15:07.731Z,4.50
2017-09-04T14:20:37.408Z,4.97
2017-09-04T14:23:06.671Z,4.53
2017-09-04T14:25:35.919Z,4.90
2017-09-04T14:28:05.152Z,4.95
2017-09-04T14:30:34.622Z,4.60
2017-09-04T14:33:03.855Z,3.85
2017-09-04T14:35:33.099Z,4.75
2017-09-04T14:38:02.367Z,4.62
2017-09-04T14:43:57.103Z,4.85
2017-09-04T14:46:41.144Z,4.78
2017-09-04T14:49:10.531Z,4.97
2017-09-04T14:51:39.876Z,4.75
2017-09-04T14:54:09.116Z,4.07
2017-09-04T14:56:38.389Z,4.45
2017-09-04T14:59:07.623Z,5.03
2017-09-04T15:01:36.863Z,4.55
2017-09-04T15:04:06.132Z,4.43
2017-09-04T15:06:35.388Z,4.07
2017-09-04T15:09:04.656Z,4.25
2017-09-04T15:11:34.684Z,3.85
2017-09-04T15:14:03.959Z,4.47
2017-09-04T15:16:33.209Z,6.05
2017-09-04T15:19:02.448Z,4.68
2017-09-04T15:21:31.723Z,5.78
2017-09-04T15:24:00.992Z,5.30
2017-09-04T15:26:30.235Z,4.70
2017-09-04T15:28:59.496Z,5.18
2017-09-04T15:31:29.012Z,4.15
2017-09-04T15:33:58.250Z,4.32
2017-09-04T15:36:27.563Z,5.95
2017-09-04T15:38:56.916Z,8.68
2017-09-04T15:41:26.378Z,8.73
2017-09-04T15:43:55.795Z,5.75
2017-09-04T15:46:25.176Z,5.60
2017-09-04T15:48:54.503Z,4.43
2017-09-04T15:51:24.009Z,5.40
2017-09-04T15:53:53.267Z,4.03
2017-09-04T15:56:22.513Z,5.10
2017-09-04T15:58:52.096Z,4.10
2017-09-04T16:01:21.370Z,4.15
2017-09-04T16:03:50.620Z,3.62
2017-09-04T16:06:21.144Z,3.95
2017-09-04T16:08:50.384Z,3.03
2017-09-04T16:11:19.650Z,3.35
2017-09-04T16:13:58.824Z,3.50
2017-09-04T16:16:28.151Z,3.40
2017-09-04T16:18:58.299Z,3.55
2017-09-04T16:21:27.605Z,3.60
2017-09-04T16:24:13.627Z,3.00
2017-09-04T16:26:42.964Z,3.50
2017-09-04T16:29:12.198Z,4.10
2017-09-04T16:31:43.828Z,3.53
2017-09-04T16:34:13.094Z,3.60
2017-09-04T16:36:57.988Z,3.40
2017-09-04T16:39:33.759Z,3.80
2017-09-04T16:42:08.452Z,3.50
2017-09-04T16:44:37.727Z,3.20
2017-09-04T16:47:12.607Z,3.33
2017-09-04T16:52:59.804Z,3.20
2017-09-04T16:55:44.939Z,2.95
2017-09-04T16:58:14.183Z,3.10
2017-09-04T17:00:43.426Z,3.10
2017-09-04T17:03:12.850Z,3.42
2017-09-04T17:05:42.089Z,3.42
2017-09-04T17:08:13.750Z,3.05
2017-09-04T17:10:46.495Z,2.97
2017-09-04T17:13:15.776Z,3.45
2017-09-04T17:15:47.359Z,3.15
2017-09-04T17:18:16.885Z,3.53
2017-09-04T17:20:46.388Z,3.25
2017-09-04T17:23:16.407Z,3.28
2017-09-04T17:25:45.645Z,3.72
2017-09-04T17:28:14.910Z,3.40
2017-09-04T17:30:44.153Z,3.40
2017-09-04T17:33:13.392Z,3.85
2017-09-04T17:35:42.667Z,3.03
2017-09-04T17:38:11.918Z,3.03
2017-09-04T17:40:41.187Z,3.40
2017-09-04T17:43:10.604Z,3.75
2017-09-04T17:45:39.847Z,3.47
2017-09-04T17:48:09.095Z,4.03
2017-09-04T17:50:38.539Z,3.90
2017-09-04T17:53:07.778Z,3.70
2017-09-04T17:55:37.024Z,3.90
2017-09-04T17:58:06.281Z,4.00
2017-09-04T18:00:35.547Z,4.30
2017-09-04T18:03:04.805Z,4.22
2017-09-04T18:05:34.085Z,3.60
2017-09-04T18:08:03.367Z,3.87
2017-09-04T18:10:32.616Z,3.90
2017-09-04T18:13:01.864Z,4.00
2017-09-04T18:15:31.123Z,3.80
2017-09-04T18:18:00.382Z,3.97
2017-09-04T18:20:29.843Z,3.35
2017-09-04T18:22:59.091Z,3.78
2017-09-04T18:25:28.334Z,4.10
2017-09-04T18:27:58.799Z,5.12
2017-09-04T18:30:28.036Z,4.00
2017-09-04T18:32:57.284Z,4.22
2017-09-04T18:35:26.570Z,5.82
2017-09-04T18:37:55.819Z,5.50
2017-09-04T18:40:25.243Z,5.20
2017-09-04T18:42:55.267Z,5.60
2017-09-04T18:45:29.370Z,4.78
2017-09-04T18:47:59.071Z,6.35
2017-09-04T18:50:28.320Z,6.40
2017-09-04T18:52:57.827Z,4.90
2017-09-04T18:55:28.034Z,5.50
2017-09-04T18:57:57.715Z,5.60
2017-09-04T19:00:27.101Z,6.05
2017-09-04T19:02:57.332Z,5.75
2017-09-04T19:05:26.593Z,5.00
2017-09-04T19:07:55.880Z,5.32
2017-09-04T19:10:25.115Z,5.22
2017-09-04T19:12:54.371Z,5.65
2017-09-04T19:15:23.800Z,6.00
2017-09-04T19:17:53.055Z,5.90
2017-09-04T19:20:24.015Z,5.72
2017-09-04T19:22:53.259Z,7.62
2017-09-04T19:25:22.503Z,5.40
2017-09-04T19:27:51.919Z,5.47
2017-09-04T19:30:21.159Z,6.47
2017-09-04T19:32:50.491Z,5.60
2017-09-04T19:35:19.748Z,6.43
2017-09-04T19:37:49.192Z,6.45
2017-09-04T19:40:18.431Z,6.10
2017-09-04T19:42:47.667Z,6.03
2017-09-04T19:45:16.927Z,6.10
2017-09-04T19:47:46.167Z,6.25
2017-09-04T19:50:15.439Z,6.85
2017-09-04T19:52:44.683Z,6.15
2017-09-04T19:55:13.940Z,6.95
2017-09-04T19:57:43.226Z,7.25
2017-09-04T20:00:12.471Z,7.57
2017-09-04T20:02:41.711Z,7.00
2017-09-04T20:05:11.169Z,7.22
2017-09-04T20:07:40.407Z,6.93
2017-09-04T20:10:09.669Z,6.37
2017-09-04T20:12:39.081Z,7.07
2017-09-04T20:15:08.328Z,7.10
2017-09-04T20:17:37.572Z,7.03
2017-09-04T20:20:06.927Z,6.07
2017-09-04T20:22:36.172Z,6.75
2017-09-04T20:25:05.410Z,6.20
2017-09-04T20:27:34.687Z,6.30
2017-09-04T20:30:03.923Z,6.47
2017-09-04T20:32:33.167Z,6.40
2017-09-04T20:35:02.460Z,6.28
2017-09-04T20:37:31.712Z,7.00
2017-09-04T20:40:00.969Z,6.78
2017-09-04T20:42:30.242Z,7.22
2017-09-04T20:44:59.491Z,7.30
2017-09-04T20:47:28.735Z,6.45
2017-09-04T20:49:58.046Z,6.43
2017-09-04T20:52:27.283Z,6.75
2017-09-04T20:54:56.540Z,7.18
2017-09-04T20:57:25.840Z,6.43
2017-09-04T20:59:55.099Z,6.72
2017-09-04T21:02:24.347Z,6.87
2017-09-04T21:04:53.611Z,6.90
2017-09-04T21:07:22.853Z,7.70
2017-09-04T21:09:52.105Z,6.85
2017-09-04T21:12:21.367Z,7.37
2017-09-04T21:14:50.603Z,7.43
2017-09-04T21:17:20.055Z,7.40
2017-09-04T21:19:49.283Z,7.40
2017-09-04T21:22:18.568Z,6.95
2017-09-04T21:24:47.818Z,6.95
2017-09-04T21:27:17.066Z,7.93
2017-09-04T21:29:46.318Z,6.60
2017-09-04T21:32:15.546Z,6.72
2017-09-04T21:34:44.836Z,7.07
2017-09-04T21:37:14.075Z,7.40
2017-09-04T21:39:43.318Z,7.97
2017-09-04T21:42:12.609Z,7.03
2017-09-04T21:44:41.842Z,6.72
2017-09-04T21:47:11.123Z,8.02
2017-09-04T21:49:40.383Z,8.15
2017-09-04T21:52:09.627Z,8.10
2017-09-04T21:54:38.870Z,8.00
2017-09-04T21:57:08.160Z,8.20
2017-09-04T21:59:37.408Z,8.13
2017-09-04T22:02:06.653Z,7.60
2017-09-04T22:04:36.060Z,7.18
2017-09-04T22:07:05.296Z,7.45
2017-09-04T22:09:34.545Z,8.65
2017-09-04T22:12:03.836Z,7.40
2017-09-04T22:14:33.104Z,7.20
2017-09-04T22:17:02.351Z,7.70
2017-09-04T22:19:31.603Z,7.25
2017-09-04T22:22:00.861Z,7.00
2017-09-04T22:24:30.132Z,7.70
2017-09-04T22:26:59.374Z,8.48
2017-09-04T22:29:28.617Z,7.80
2017-09-04T22:31:57.884Z,7.07
2017-09-04T22:34:27.188Z,8.10
2017-09-04T22:36:56.432Z,7.07
2017-09-04T22:39:25.705Z,7.47
2017-09-04T22:41:54.995Z,6.85
2017-09-04T22:44:24.295Z,7.50
2017-09-04T22:46:53.535Z,5.85
2017-09-04T22:49:22.967Z,6.45
2017-09-04T22:51:52.195Z,5.65
2017-09-04T22:54:21.439Z,5.35
2017-09-04T22:56:50.855Z,5.82
2017-09-04T22:59:20.115Z,5.65
2017-09-04T23:01:49.367Z,5.57
2017-09-04T23:04:18.616Z,5.03
2017-09-04T23:06:47.921Z,4.97
2017-09-04T23:09:17.175Z,5.30
2017-09-04T23:11:46.408Z,5.07
2017-09-04T23:14:15.651Z,5.32
2017-09-04T23:16:44.912Z,4.68
2017-09-04T23:19:14.195Z,4.25
2017-09-04T23:21:43.436Z,6.15
2017-09-04T23:24:12.675Z,4.30
2017-09-04T23:26:41.938Z,4.70
2017-09-04T23:29:11.259Z,4.47
2017-09-04T23:31:40.527Z,4.22
2017-09-04T23:34:09.771Z,4.65
2017-09-04T23:36:39.035Z,5.00
2017-09-04T23:39:08.455Z,4.30
2017-09-04T23:41:37.699Z,4.35
2017-09-04T23:44:06.938Z,4.70
2017-09-04T23:46:36.238Z,4.35
2017-09-04T23:49:05.487Z,4.60
2017-09-04T23:51:34.750Z,4.85
2017-09-04T23:54:04.007Z,4.70
2017-09-04T23:56:33.260Z,4.35
2017-09-04T23:59:02.491Z,4.72
